Saint Elmo, Colorado
Current Conditions -  °F | °C
As of 9:34 AM on Thursday 23 Oct 2014 (Local Time) from K7BM Reporting Station
Clear Clear  
Wind Chill: 44°   Ceiling: Unl
Heat Index: 46°   Visibility: 10mi
Dew Point: 27°   Wind: 6mph
Humidity: 46%   Direction: 110°ESE
Pressure: 30.43"   Gusts: NA
Location:  38.7194°N, 106.276°W
Report Text: K7BM 231534Z AUTO 11005KT 10SM CLR 08/M03 A3043 RMK AO2
Loading
Personal Weather Stations






























Interactive Weather Map
Tropical Storm Tracking
New forecast layout! Learn more

10-Day Weather Forecast

Advertisements
Track Severe Weather on mobile